sensor_id;sensor_type;location;lat;lon;timestamp;P1;durP1;ratioP1;P2;durP2;ratioP2
67981;SDS011;64109;52.148;4.466;2022-11-20T00:01:10;4.68;;;2.88;;
67981;SDS011;64109;52.148;4.466;2022-11-20T00:03:36;5.55;;;3.22;;
67981;SDS011;64109;52.148;4.466;2022-11-20T00:06:06;5.00;;;2.85;;
67981;SDS011;64109;52.148;4.466;2022-11-20T00:08:32;4.68;;;4.15;;
67981;SDS011;64109;52.148;4.466;2022-11-20T00:13:40;4.32;;;2.70;;
67981;SDS011;64109;52.148;4.466;2022-11-20T00:16:07;5.65;;;3.33;;
67981;SDS011;64109;52.148;4.466;2022-11-20T00:18:33;6.32;;;3.85;;
67981;SDS011;64109;52.148;4.466;2022-11-20T00:21:03;7.20;;;3.25;;
67981;SDS011;64109;52.148;4.466;2022-11-20T00:23:29;7.05;;;4.05;;
67981;SDS011;64109;52.148;4.466;2022-11-20T00:25:55;6.00;;;3.30;;
67981;SDS011;64109;52.148;4.466;2022-11-20T00:28:21;11.13;;;3.83;;
67981;SDS011;64109;52.148;4.466;2022-11-20T00:30:47;5.15;;;3.28;;
67981;SDS011;64109;52.148;4.466;2022-11-20T00:33:13;7.45;;;3.53;;
67981;SDS011;64109;52.148;4.466;2022-11-20T00:35:39;5.45;;;3.47;;
67981;SDS011;64109;52.148;4.466;2022-11-20T00:38:05;6.03;;;3.35;;
67981;SDS011;64109;52.148;4.466;2022-11-20T00:40:31;5.75;;;4.18;;
67981;SDS011;64109;52.148;4.466;2022-11-20T00:42:57;7.45;;;4.20;;
67981;SDS011;64109;52.148;4.466;2022-11-20T00:45:23;5.00;;;3.40;;
67981;SDS011;64109;52.148;4.466;2022-11-20T00:47:49;7.05;;;3.80;;
67981;SDS011;64109;52.148;4.466;2022-11-20T00:50:15;5.88;;;3.33;;
67981;SDS011;64109;52.148;4.466;2022-11-20T00:52:41;5.97;;;3.67;;
67981;SDS011;64109;52.148;4.466;2022-11-20T00:55:07;5.50;;;4.45;;
67981;SDS011;64109;52.148;4.466;2022-11-20T00:57:33;4.97;;;3.63;;
67981;SDS011;64109;52.148;4.466;2022-11-20T00:59:59;5.65;;;3.33;;
67981;SDS011;64109;52.148;4.466;2022-11-20T01:02:25;4.82;;;3.30;;
67981;SDS011;64109;52.148;4.466;2022-11-20T01:04:51;5.38;;;4.05;;
67981;SDS011;64109;52.148;4.466;2022-11-20T01:07:17;4.43;;;3.42;;
67981;SDS011;64109;52.148;4.466;2022-11-20T01:09:43;6.97;;;3.65;;
67981;SDS011;64109;52.148;4.466;2022-11-20T01:12:08;6.18;;;3.75;;
67981;SDS011;64109;52.148;4.466;2022-11-20T01:14:35;5.95;;;3.60;;
67981;SDS011;64109;52.148;4.466;2022-11-20T01:17:01;6.70;;;3.70;;
67981;SDS011;64109;52.148;4.466;2022-11-20T01:19:27;5.90;;;3.40;;
67981;SDS011;64109;52.148;4.466;2022-11-20T01:21:53;5.45;;;3.63;;
67981;SDS011;64109;52.148;4.466;2022-11-20T01:24:20;6.35;;;3.72;;
67981;SDS011;64109;52.148;4.466;2022-11-20T01:26:49;5.45;;;3.63;;
67981;SDS011;64109;52.148;4.466;2022-11-20T01:29:17;5.60;;;3.70;;
67981;SDS011;64109;52.148;4.466;2022-11-20T01:31:43;5.43;;;3.92;;
67981;SDS011;64109;52.148;4.466;2022-11-20T01:34:14;5.72;;;3.78;;
67981;SDS011;64109;52.148;4.466;2022-11-20T01:36:41;7.35;;;3.83;;
67981;SDS011;64109;52.148;4.466;2022-11-20T01:39:10;6.53;;;3.53;;
67981;SDS011;64109;52.148;4.466;2022-11-20T01:41:37;5.68;;;3.90;;
67981;SDS011;64109;52.148;4.466;2022-11-20T01:44:23;6.60;;;3.50;;
67981;SDS011;64109;52.148;4.466;2022-11-20T01:47:07;5.82;;;3.72;;
67981;SDS011;64109;52.148;4.466;2022-11-20T01:49:42;4.93;;;3.53;;
67981;SDS011;64109;52.148;4.466;2022-11-20T01:52:12;6.07;;;4.25;;
67981;SDS011;64109;52.148;4.466;2022-11-20T01:54:41;5.82;;;4.35;;
67981;SDS011;64109;52.148;4.466;2022-11-20T01:57:08;6.32;;;4.53;;
67981;SDS011;64109;52.148;4.466;2022-11-20T01:59:37;6.15;;;3.53;;
67981;SDS011;64109;52.148;4.466;2022-11-20T02:02:04;6.13;;;3.72;;
67981;SDS011;64109;52.148;4.466;2022-11-20T02:04:30;5.47;;;3.58;;
67981;SDS011;64109;52.148;4.466;2022-11-20T02:06:59;6.03;;;3.70;;
67981;SDS011;64109;52.148;4.466;2022-11-20T02:09:26;6.60;;;4.22;;
67981;SDS011;64109;52.148;4.466;2022-11-20T02:11:52;6.22;;;3.70;;
67981;SDS011;64109;52.148;4.466;2022-11-20T02:14:19;6.85;;;4.07;;
67981;SDS011;64109;52.148;4.466;2022-11-20T02:16:46;6.25;;;3.63;;
67981;SDS011;64109;52.148;4.466;2022-11-20T02:19:22;6.30;;;3.85;;
67981;SDS011;64109;52.148;4.466;2022-11-20T02:21:51;5.90;;;3.60;;
67981;SDS011;64109;52.148;4.466;2022-11-20T02:24:21;6.80;;;3.88;;
67981;SDS011;64109;52.148;4.466;2022-11-20T02:29:40;5.35;;;3.50;;
67981;SDS011;64109;52.148;4.466;2022-11-20T02:32:17;5.30;;;3.78;;
67981;SDS011;64109;52.148;4.466;2022-11-20T02:34:44;5.70;;;3.75;;
67981;SDS011;64109;52.148;4.466;2022-11-20T02:37:10;8.13;;;4.40;;
67981;SDS011;64109;52.148;4.466;2022-11-20T02:39:36;6.45;;;3.58;;
67981;SDS011;64109;52.148;4.466;2022-11-20T02:42:02;6.30;;;3.70;;
67981;SDS011;64109;52.148;4.466;2022-11-20T02:44:28;5.18;;;3.50;;
67981;SDS011;64109;52.148;4.466;2022-11-20T02:46:56;6.13;;;3.72;;
67981;SDS011;64109;52.148;4.466;2022-11-20T02:49:22;6.10;;;4.10;;
67981;SDS011;64109;52.148;4.466;2022-11-20T02:51:48;4.80;;;3.53;;
67981;SDS011;64109;52.148;4.466;2022-11-20T02:54:14;6.35;;;3.75;;
67981;SDS011;64109;52.148;4.466;2022-11-20T02:56:40;6.70;;;4.45;;
67981;SDS011;64109;52.148;4.466;2022-11-20T02:59:06;5.72;;;3.70;;
67981;SDS011;64109;52.148;4.466;2022-11-20T03:01:32;6.55;;;3.70;;
67981;SDS011;64109;52.148;4.466;2022-11-20T03:03:58;4.95;;;3.75;;
67981;SDS011;64109;52.148;4.466;2022-11-20T03:06:24;6.43;;;4.30;;
67981;SDS011;64109;52.148;4.466;2022-11-20T03:08:50;6.90;;;4.10;;
67981;SDS011;64109;52.148;4.466;2022-11-20T03:11:16;6.15;;;4.18;;
67981;SDS011;64109;52.148;4.466;2022-11-20T03:13:42;6.68;;;4.22;;
67981;SDS011;64109;52.148;4.466;2022-11-20T03:16:18;6.82;;;4.57;;
67981;SDS011;64109;52.148;4.466;2022-11-20T03:18:45;6.70;;;4.90;;
67981;SDS011;64109;52.148;4.466;2022-11-20T03:21:11;6.57;;;3.90;;
67981;SDS011;64109;52.148;4.466;2022-11-20T03:23:38;6.05;;;4.18;;
67981;SDS011;64109;52.148;4.466;2022-11-20T03:26:07;5.93;;;3.80;;
67981;SDS011;64109;52.148;4.466;2022-11-20T03:28:33;6.72;;;4.40;;
67981;SDS011;64109;52.148;4.466;2022-11-20T03:31:04;6.45;;;3.92;;
67981;SDS011;64109;52.148;4.466;2022-11-20T03:33:30;7.15;;;4.03;;
67981;SDS011;64109;52.148;4.466;2022-11-20T03:36:00;4.95;;;3.30;;
67981;SDS011;64109;52.148;4.466;2022-11-20T03:38:28;6.63;;;3.70;;
67981;SDS011;64109;52.148;4.466;2022-11-20T03:40:58;6.30;;;3.92;;
67981;SDS011;64109;52.148;4.466;2022-11-20T03:43:24;6.82;;;4.05;;
67981;SDS011;64109;52.148;4.466;2022-11-20T03:45:49;6.90;;;4.45;;
67981;SDS011;64109;52.148;4.466;2022-11-20T03:48:15;6.53;;;4.03;;
67981;SDS011;64109;52.148;4.466;2022-11-20T03:50:41;6.00;;;3.95;;
67981;SDS011;64109;52.148;4.466;2022-11-20T03:53:07;9.27;;;3.97;;
67981;SDS011;64109;52.148;4.466;2022-11-20T03:55:33;7.15;;;4.18;;
67981;SDS011;64109;52.148;4.466;2022-11-20T03:57:59;7.18;;;5.50;;
67981;SDS011;64109;52.148;4.466;2022-11-20T04:00:25;5.80;;;4.20;;
67981;SDS011;64109;52.148;4.466;2022-11-20T04:02:51;6.63;;;3.92;;
67981;SDS011;64109;52.148;4.466;2022-11-20T04:05:17;6.57;;;3.95;;
67981;SDS011;64109;52.148;4.466;2022-11-20T04:07:43;7.05;;;4.07;;
67981;SDS011;64109;52.148;4.466;2022-11-20T04:10:09;6.20;;;3.80;;
67981;SDS011;64109;52.148;4.466;2022-11-20T04:12:35;6.45;;;3.80;;
67981;SDS011;64109;52.148;4.466;2022-11-20T04:15:01;7.55;;;3.92;;
67981;SDS011;64109;52.148;4.466;2022-11-20T04:17:27;6.15;;;4.50;;
67981;SDS011;64109;52.148;4.466;2022-11-20T04:19:53;6.82;;;4.55;;
67981;SDS011;64109;52.148;4.466;2022-11-20T04:22:19;6.13;;;4.40;;
67981;SDS011;64109;52.148;4.466;2022-11-20T04:24:45;6.00;;;3.80;;
67981;SDS011;64109;52.148;4.466;2022-11-20T04:27:11;6.72;;;4.30;;
67981;SDS011;64109;52.148;4.466;2022-11-20T04:29:37;7.18;;;4.88;;
67981;SDS011;64109;52.148;4.466;2022-11-20T04:32:03;6.13;;;4.70;;
67981;SDS011;64109;52.148;4.466;2022-11-20T04:34:29;6.38;;;4.32;;
67981;SDS011;64109;52.148;4.466;2022-11-20T04:36:55;7.05;;;4.55;;
67981;SDS011;64109;52.148;4.466;2022-11-20T04:39:21;6.30;;;4.43;;
67981;SDS011;64109;52.148;4.466;2022-11-20T04:41:47;8.48;;;4.80;;
67981;SDS011;64109;52.148;4.466;2022-11-20T04:44:12;6.10;;;4.13;;
67981;SDS011;64109;52.148;4.466;2022-11-20T04:46:42;6.82;;;4.38;;
67981;SDS011;64109;52.148;4.466;2022-11-20T04:49:08;7.05;;;4.35;;
67981;SDS011;64109;52.148;4.466;2022-11-20T04:51:34;7.55;;;3.97;;
67981;SDS011;64109;52.148;4.466;2022-11-20T04:54:00;6.28;;;4.35;;
67981;SDS011;64109;52.148;4.466;2022-11-20T04:56:26;6.45;;;4.30;;
67981;SDS011;64109;52.148;4.466;2022-11-20T04:58:53;7.93;;;4.40;;
67981;SDS011;64109;52.148;4.466;2022-11-20T05:01:19;6.70;;;4.43;;
67981;SDS011;64109;52.148;4.466;2022-11-20T05:03:46;6.57;;;4.38;;
67981;SDS011;64109;52.148;4.466;2022-11-20T05:06:13;7.43;;;4.20;;
67981;SDS011;64109;52.148;4.466;2022-11-20T05:08:39;5.93;;;4.85;;
67981;SDS011;64109;52.148;4.466;2022-11-20T05:11:06;7.35;;;4.38;;
67981;SDS011;64109;52.148;4.466;2022-11-20T05:13:32;6.45;;;4.50;;
67981;SDS011;64109;52.148;4.466;2022-11-20T05:16:08;7.03;;;3.97;;
67981;SDS011;64109;52.148;4.466;2022-11-20T05:18:35;7.50;;;3.95;;
67981;SDS011;64109;52.148;4.466;2022-11-20T05:21:01;6.43;;;4.40;;
67981;SDS011;64109;52.148;4.466;2022-11-20T05:23:27;7.68;;;4.50;;
67981;SDS011;64109;52.148;4.466;2022-11-20T05:25:53;6.85;;;4.47;;
67981;SDS011;64109;52.148;4.466;2022-11-20T05:28:20;6.32;;;4.28;;
67981;SDS011;64109;52.148;4.466;2022-11-20T05:30:46;7.13;;;4.15;;
67981;SDS011;64109;52.148;4.466;2022-11-20T05:33:12;6.10;;;4.30;;
67981;SDS011;64109;52.148;4.466;2022-11-20T05:35:38;7.35;;;4.30;;
67981;SDS011;64109;52.148;4.466;2022-11-20T05:38:04;7.82;;;4.90;;
67981;SDS011;64109;52.148;4.466;2022-11-20T05:40:30;8.27;;;5.13;;
67981;SDS011;64109;52.148;4.466;2022-11-20T05:42:56;6.20;;;4.07;;
67981;SDS011;64109;52.148;4.466;2022-11-20T05:45:22;6.28;;;4.25;;
67981;SDS011;64109;52.148;4.466;2022-11-20T05:47:48;7.25;;;4.30;;
67981;SDS011;64109;52.148;4.466;2022-11-20T05:50:14;6.88;;;5.18;;
67981;SDS011;64109;52.148;4.466;2022-11-20T05:52:40;5.80;;;4.03;;
67981;SDS011;64109;52.148;4.466;2022-11-20T05:55:06;6.90;;;4.20;;
67981;SDS011;64109;52.148;4.466;2022-11-20T05:57:32;6.40;;;5.47;;
67981;SDS011;64109;52.148;4.466;2022-11-20T05:59:58;7.75;;;4.13;;
67981;SDS011;64109;52.148;4.466;2022-11-20T06:02:24;6.47;;;4.30;;
67981;SDS011;64109;52.148;4.466;2022-11-20T06:04:50;6.47;;;4.45;;
67981;SDS011;64109;52.148;4.466;2022-11-20T06:07:16;7.20;;;4.53;;
67981;SDS011;64109;52.148;4.466;2022-11-20T06:09:42;6.80;;;4.53;;
67981;SDS011;64109;52.148;4.466;2022-11-20T06:12:08;7.25;;;4.28;;
67981;SDS011;64109;52.148;4.466;2022-11-20T06:14:34;7.10;;;4.55;;
67981;SDS011;64109;52.148;4.466;2022-11-20T06:17:00;6.72;;;4.28;;
67981;SDS011;64109;52.148;4.466;2022-11-20T06:19:26;7.63;;;4.60;;
67981;SDS011;64109;52.148;4.466;2022-11-20T06:21:52;9.55;;;5.43;;
67981;SDS011;64109;52.148;4.466;2022-11-20T06:24:18;7.63;;;4.70;;
67981;SDS011;64109;52.148;4.466;2022-11-20T06:26:44;6.57;;;3.97;;
67981;SDS011;64109;52.148;4.466;2022-11-20T06:29:10;6.47;;;4.47;;
67981;SDS011;64109;52.148;4.466;2022-11-20T06:31:36;6.72;;;4.07;;
67981;SDS011;64109;52.148;4.466;2022-11-20T06:34:03;5.30;;;3.90;;
67981;SDS011;64109;52.148;4.466;2022-11-20T06:36:30;7.80;;;5.00;;
67981;SDS011;64109;52.148;4.466;2022-11-20T06:38:56;6.40;;;4.03;;
67981;SDS011;64109;52.148;4.466;2022-11-20T06:41:23;7.35;;;4.32;;
67981;SDS011;64109;52.148;4.466;2022-11-20T06:43:50;7.63;;;4.00;;
67981;SDS011;64109;52.148;4.466;2022-11-20T06:46:16;11.45;;;4.38;;
67981;SDS011;64109;52.148;4.466;2022-11-20T06:48:42;6.72;;;4.07;;
67981;SDS011;64109;52.148;4.466;2022-11-20T06:51:09;8.88;;;3.78;;
67981;SDS011;64109;52.148;4.466;2022-11-20T06:53:35;7.13;;;4.10;;
67981;SDS011;64109;52.148;4.466;2022-11-20T06:56:01;9.20;;;4.97;;
67981;SDS011;64109;52.148;4.466;2022-11-20T06:58:28;7.30;;;4.55;;
67981;SDS011;64109;52.148;4.466;2022-11-20T07:00:58;7.07;;;4.40;;
67981;SDS011;64109;52.148;4.466;2022-11-20T07:03:24;6.63;;;3.95;;
67981;SDS011;64109;52.148;4.466;2022-11-20T07:05:50;7.50;;;4.70;;
67981;SDS011;64109;52.148;4.466;2022-11-20T07:08:16;7.32;;;4.38;;
67981;SDS011;64109;52.148;4.466;2022-11-20T07:10:42;7.18;;;3.65;;
67981;SDS011;64109;52.148;4.466;2022-11-20T07:13:08;7.90;;;4.43;;
67981;SDS011;64109;52.148;4.466;2022-11-20T07:15:34;8.77;;;4.47;;
67981;SDS011;64109;52.148;4.466;2022-11-20T07:18:00;7.07;;;4.28;;
67981;SDS011;64109;52.148;4.466;2022-11-20T07:20:27;8.05;;;4.30;;
67981;SDS011;64109;52.148;4.466;2022-11-20T07:22:56;8.05;;;4.38;;
67981;SDS011;64109;52.148;4.466;2022-11-20T07:25:23;9.63;;;3.97;;
67981;SDS011;64109;52.148;4.466;2022-11-20T07:27:49;7.90;;;5.03;;
67981;SDS011;64109;52.148;4.466;2022-11-20T07:30:15;7.82;;;4.78;;
67981;SDS011;64109;52.148;4.466;2022-11-20T07:32:41;6.93;;;5.25;;
67981;SDS011;64109;52.148;4.466;2022-11-20T07:35:07;7.53;;;5.28;;
67981;SDS011;64109;52.148;4.466;2022-11-20T07:37:34;7.40;;;4.43;;
67981;SDS011;64109;52.148;4.466;2022-11-20T07:40:00;7.85;;;4.93;;
67981;SDS011;64109;52.148;4.466;2022-11-20T07:42:26;9.43;;;4.78;;
67981;SDS011;64109;52.148;4.466;2022-11-20T07:44:52;8.75;;;5.03;;
67981;SDS011;64109;52.148;4.466;2022-11-20T07:47:18;7.95;;;4.70;;
67981;SDS011;64109;52.148;4.466;2022-11-20T07:49:44;7.78;;;4.72;;
67981;SDS011;64109;52.148;4.466;2022-11-20T07:52:10;7.28;;;4.80;;
67981;SDS011;64109;52.148;4.466;2022-11-20T07:54:35;12.70;;;5.32;;
67981;SDS011;64109;52.148;4.466;2022-11-20T07:57:02;10.15;;;4.70;;
67981;SDS011;64109;52.148;4.466;2022-11-20T07:59:28;9.40;;;4.53;;
67981;SDS011;64109;52.148;4.466;2022-11-20T08:01:54;13.20;;;5.78;;
67981;SDS011;64109;52.148;4.466;2022-11-20T08:04:20;13.90;;;5.00;;
67981;SDS011;64109;52.148;4.466;2022-11-20T08:06:46;15.82;;;5.07;;
67981;SDS011;64109;52.148;4.466;2022-11-20T08:09:12;13.55;;;5.18;;
67981;SDS011;64109;52.148;4.466;2022-11-20T08:11:38;12.88;;;5.25;;
67981;SDS011;64109;52.148;4.466;2022-11-20T08:14:23;11.80;;;6.55;;
67981;SDS011;64109;52.148;4.466;2022-11-20T08:16:49;12.32;;;5.43;;
67981;SDS011;64109;52.148;4.466;2022-11-20T08:19:16;13.07;;;5.15;;
67981;SDS011;64109;52.148;4.466;2022-11-20T08:21:42;14.05;;;5.25;;
67981;SDS011;64109;52.148;4.466;2022-11-20T08:24:09;13.00;;;6.22;;
67981;SDS011;64109;52.148;4.466;2022-11-20T08:26:35;17.38;;;8.80;;
67981;SDS011;64109;52.148;4.466;2022-11-20T08:29:02;12.40;;;7.13;;
67981;SDS011;64109;52.148;4.466;2022-11-20T08:31:28;15.93;;;8.38;;
67981;SDS011;64109;52.148;4.466;2022-11-20T08:33:54;16.38;;;9.10;;
67981;SDS011;64109;52.148;4.466;2022-11-20T08:36:21;17.77;;;9.57;;
67981;SDS011;64109;52.148;4.466;2022-11-20T08:38:47;18.55;;;10.93;;
67981;SDS011;64109;52.148;4.466;2022-11-20T08:41:13;16.83;;;10.55;;
67981;SDS011;64109;52.148;4.466;2022-11-20T08:43:52;17.42;;;11.38;;
67981;SDS011;64109;52.148;4.466;2022-11-20T08:46:19;19.30;;;11.82;;
67981;SDS011;64109;52.148;4.466;2022-11-20T08:48:45;19.63;;;10.85;;
67981;SDS011;64109;52.148;4.466;2022-11-20T08:51:11;17.48;;;10.68;;
67981;SDS011;64109;52.148;4.466;2022-11-20T08:53:38;17.40;;;11.38;;
67981;SDS011;64109;52.148;4.466;2022-11-20T08:56:04;17.35;;;11.50;;
67981;SDS011;64109;52.148;4.466;2022-11-20T08:58:30;18.05;;;11.55;;
67981;SDS011;64109;52.148;4.466;2022-11-20T09:00:56;24.38;;;11.05;;
67981;SDS011;64109;52.148;4.466;2022-11-20T09:03:22;19.00;;;11.55;;
67981;SDS011;64109;52.148;4.466;2022-11-20T09:05:48;16.73;;;10.40;;
67981;SDS011;64109;52.148;4.466;2022-11-20T09:08:15;15.95;;;10.55;;
67981;SDS011;64109;52.148;4.466;2022-11-20T09:10:41;15.63;;;10.48;;
67981;SDS011;64109;52.148;4.466;2022-11-20T09:13:07;19.75;;;11.13;;
67981;SDS011;64109;52.148;4.466;2022-11-20T09:15:33;18.55;;;11.48;;
67981;SDS011;64109;52.148;4.466;2022-11-20T09:18:00;15.90;;;10.82;;
67981;SDS011;64109;52.148;4.466;2022-11-20T09:20:27;18.85;;;10.52;;
67981;SDS011;64109;52.148;4.466;2022-11-20T09:22:53;16.95;;;10.50;;
67981;SDS011;64109;52.148;4.466;2022-11-20T09:25:19;16.83;;;10.65;;
67981;SDS011;64109;52.148;4.466;2022-11-20T09:27:45;16.35;;;9.55;;
67981;SDS011;64109;52.148;4.466;2022-11-20T09:30:12;17.15;;;10.02;;
67981;SDS011;64109;52.148;4.466;2022-11-20T09:32:39;14.55;;;9.70;;
67981;SDS011;64109;52.148;4.466;2022-11-20T09:35:05;14.38;;;9.77;;
67981;SDS011;64109;52.148;4.466;2022-11-20T09:37:31;13.07;;;9.02;;
67981;SDS011;64109;52.148;4.466;2022-11-20T09:39:57;15.05;;;9.55;;
67981;SDS011;64109;52.148;4.466;2022-11-20T09:50:38;14.27;;;9.60;;
67981;SDS011;64109;52.148;4.466;2022-11-20T09:55:35;14.35;;;8.57;;
67981;SDS011;64109;52.148;4.466;2022-11-20T09:58:01;13.93;;;8.50;;
67981;SDS011;64109;52.148;4.466;2022-11-20T10:00:31;15.52;;;8.57;;
67981;SDS011;64109;52.148;4.466;2022-11-20T10:03:20;16.45;;;8.15;;
67981;SDS011;64109;52.148;4.466;2022-11-20T10:05:49;15.70;;;8.18;;
67981;SDS011;64109;52.148;4.466;2022-11-20T10:08:53;13.60;;;8.27;;
67981;SDS011;64109;52.148;4.466;2022-11-20T10:18:39;13.68;;;8.05;;
67981;SDS011;64109;52.148;4.466;2022-11-20T10:29:34;11.65;;;8.27;;
67981;SDS011;64109;52.148;4.466;2022-11-20T10:32:13;11.10;;;7.00;;
67981;SDS011;64109;52.148;4.466;2022-11-20T10:34:44;11.43;;;7.45;;
67981;SDS011;64109;52.148;4.466;2022-11-20T10:37:13;10.32;;;7.18;;
67981;SDS011;64109;52.148;4.466;2022-11-20T10:39:53;10.23;;;7.45;;
67981;SDS011;64109;52.148;4.466;2022-11-20T10:42:35;11.73;;;6.80;;
67981;SDS011;64109;52.148;4.466;2022-11-20T10:45:11;10.20;;;7.15;;
67981;SDS011;64109;52.148;4.466;2022-11-20T10:47:39;11.05;;;6.90;;
67981;SDS011;64109;52.148;4.466;2022-11-20T10:50:05;11.30;;;7.18;;
67981;SDS011;64109;52.148;4.466;2022-11-20T10:52:39;10.70;;;6.93;;
67981;SDS011;64109;52.148;4.466;2022-11-20T11:00:12;11.27;;;7.47;;
67981;SDS011;64109;52.148;4.466;2022-11-20T11:02:43;14.85;;;6.85;;
67981;SDS011;64109;52.148;4.466;2022-11-20T11:05:56;10.80;;;7.03;;
67981;SDS011;64109;52.148;4.466;2022-11-20T11:07:56;10.82;;;7.05;;
67981;SDS011;64109;52.148;4.466;2022-11-20T11:10:44;11.65;;;6.97;;
67981;SDS011;64109;52.148;4.466;2022-11-20T11:13:22;10.98;;;6.75;;
67981;SDS011;64109;52.148;4.466;2022-11-20T11:15:49;11.40;;;6.65;;
67981;SDS011;64109;52.148;4.466;2022-11-20T11:18:25;11.98;;;6.78;;
67981;SDS011;64109;52.148;4.466;2022-11-20T11:20:52;10.68;;;6.93;;
67981;SDS011;64109;52.148;4.466;2022-11-20T11:25:58;10.60;;;6.22;;
67981;SDS011;64109;52.148;4.466;2022-11-20T11:28:24;10.32;;;6.85;;
67981;SDS011;64109;52.148;4.466;2022-11-20T11:30:52;12.43;;;6.85;;
67981;SDS011;64109;52.148;4.466;2022-11-20T11:33:26;9.25;;;7.15;;
67981;SDS011;64109;52.148;4.466;2022-11-20T11:35:56;9.55;;;6.80;;
67981;SDS011;64109;52.148;4.466;2022-11-20T11:38:27;11.35;;;7.45;;
67981;SDS011;64109;52.148;4.466;2022-11-20T11:40:54;11.30;;;7.05;;
67981;SDS011;64109;52.148;4.466;2022-11-20T11:43:26;10.65;;;6.75;;
67981;SDS011;64109;52.148;4.466;2022-11-20T11:49:00;11.38;;;7.32;;
67981;SDS011;64109;52.148;4.466;2022-11-20T11:51:28;12.07;;;6.43;;
67981;SDS011;64109;52.148;4.466;2022-11-20T11:53:56;10.65;;;7.13;;
67981;SDS011;64109;52.148;4.466;2022-11-20T11:56:24;10.32;;;6.65;;
67981;SDS011;64109;52.148;4.466;2022-11-20T11:58:51;11.75;;;8.68;;
67981;SDS011;64109;52.148;4.466;2022-11-20T12:03:59;13.98;;;6.70;;
67981;SDS011;64109;52.148;4.466;2022-11-20T12:06:26;14.68;;;7.25;;
67981;SDS011;64109;52.148;4.466;2022-11-20T12:08:56;13.25;;;6.55;;
67981;SDS011;64109;52.148;4.466;2022-11-20T12:12:08;11.27;;;6.22;;
67981;SDS011;64109;52.148;4.466;2022-11-20T12:14:18;14.10;;;6.75;;
67981;SDS011;64109;52.148;4.466;2022-11-20T12:16:48;10.02;;;6.32;;
67981;SDS011;64109;52.148;4.466;2022-11-20T12:19:15;16.30;;;7.10;;
67981;SDS011;64109;52.148;4.466;2022-11-20T12:31:56;11.43;;;6.82;;
67981;SDS011;64109;52.148;4.466;2022-11-20T12:44:50;10.00;;;6.45;;
67981;SDS011;64109;52.148;4.466;2022-11-20T12:50:23;8.70;;;6.03;;
67981;SDS011;64109;52.148;4.466;2022-11-20T12:52:57;9.73;;;7.05;;
67981;SDS011;64109;52.148;4.466;2022-11-20T13:00:23;8.55;;;5.82;;
67981;SDS011;64109;52.148;4.466;2022-11-20T13:08:40;8.30;;;5.63;;
67981;SDS011;64109;52.148;4.466;2022-11-20T13:11:17;9.95;;;6.28;;
67981;SDS011;64109;52.148;4.466;2022-11-20T13:18:54;8.05;;;5.53;;
67981;SDS011;64109;52.148;4.466;2022-11-20T13:21:21;9.30;;;6.07;;
67981;SDS011;64109;52.148;4.466;2022-11-20T13:23:48;8.15;;;6.10;;
67981;SDS011;64109;52.148;4.466;2022-11-20T13:26:18;8.30;;;5.80;;
67981;SDS011;64109;52.148;4.466;2022-11-20T13:28:45;9.10;;;5.50;;
67981;SDS011;64109;52.148;4.466;2022-11-20T13:31:27;9.27;;;5.85;;
67981;SDS011;64109;52.148;4.466;2022-11-20T13:33:54;8.05;;;5.57;;
67981;SDS011;64109;52.148;4.466;2022-11-20T13:36:25;9.00;;;5.82;;
67981;SDS011;64109;52.148;4.466;2022-11-20T13:38:53;9.98;;;6.45;;
67981;SDS011;64109;52.148;4.466;2022-11-20T13:41:33;8.52;;;6.05;;
67981;SDS011;64109;52.148;4.466;2022-11-20T13:46:40;8.95;;;6.45;;
67981;SDS011;64109;52.148;4.466;2022-11-20T13:49:16;8.85;;;5.97;;
67981;SDS011;64109;52.148;4.466;2022-11-20T13:51:44;8.52;;;5.80;;
67981;SDS011;64109;52.148;4.466;2022-11-20T14:02:17;8.60;;;6.18;;
67981;SDS011;64109;52.148;4.466;2022-11-20T14:04:48;11.85;;;7.07;;
67981;SDS011;64109;52.148;4.466;2022-11-20T14:07:14;9.95;;;5.95;;
67981;SDS011;64109;52.148;4.466;2022-11-20T14:09:49;8.93;;;5.55;;
67981;SDS011;64109;52.148;4.466;2022-11-20T14:12:16;8.50;;;6.00;;
67981;SDS011;64109;52.148;4.466;2022-11-20T14:14:50;8.68;;;6.05;;
67981;SDS011;64109;52.148;4.466;2022-11-20T14:19:54;9.23;;;6.13;;
67981;SDS011;64109;52.148;4.466;2022-11-20T14:22:25;9.35;;;6.20;;
67981;SDS011;64109;52.148;4.466;2022-11-20T14:27:36;9.88;;;5.90;;
67981;SDS011;64109;52.148;4.466;2022-11-20T14:30:03;9.13;;;6.22;;
67981;SDS011;64109;52.148;4.466;2022-11-20T14:32:29;11.10;;;5.13;;
67981;SDS011;64109;52.148;4.466;2022-11-20T14:34:57;11.15;;;6.35;;
67981;SDS011;64109;52.148;4.466;2022-11-20T14:37:24;10.02;;;5.82;;
67981;SDS011;64109;52.148;4.466;2022-11-20T14:39:53;9.68;;;6.40;;
67981;SDS011;64109;52.148;4.466;2022-11-20T14:42:21;9.07;;;5.70;;
67981;SDS011;64109;52.148;4.466;2022-11-20T14:44:48;10.57;;;6.15;;
67981;SDS011;64109;52.148;4.466;2022-11-20T14:47:15;14.40;;;5.40;;
67981;SDS011;64109;52.148;4.466;2022-11-20T14:49:43;9.93;;;5.78;;
67981;SDS011;64109;52.148;4.466;2022-11-20T14:52:19;8.43;;;5.30;;
67981;SDS011;64109;52.148;4.466;2022-11-20T14:57:22;8.98;;;6.05;;
67981;SDS011;64109;52.148;4.466;2022-11-20T14:59:48;11.38;;;6.70;;
67981;SDS011;64109;52.148;4.466;2022-11-20T15:02:14;12.00;;;6.63;;
67981;SDS011;64109;52.148;4.466;2022-11-20T15:04:44;10.88;;;6.30;;
67981;SDS011;64109;52.148;4.466;2022-11-20T15:07:10;10.77;;;6.75;;
67981;SDS011;64109;52.148;4.466;2022-11-20T15:09:36;13.38;;;7.43;;
67981;SDS011;64109;52.148;4.466;2022-11-20T15:12:03;11.00;;;6.97;;
67981;SDS011;64109;52.148;4.466;2022-11-20T15:14:30;12.40;;;7.47;;
67981;SDS011;64109;52.148;4.466;2022-11-20T15:16:57;12.73;;;7.25;;
67981;SDS011;64109;52.148;4.466;2022-11-20T15:19:25;9.52;;;6.50;;
67981;SDS011;64109;52.148;4.466;2022-11-20T15:21:51;11.13;;;7.07;;
67981;SDS011;64109;52.148;4.466;2022-11-20T15:24:18;10.80;;;7.00;;
67981;SDS011;64109;52.148;4.466;2022-11-20T15:26:44;9.95;;;6.72;;
67981;SDS011;64109;52.148;4.466;2022-11-20T15:29:14;9.55;;;6.30;;
67981;SDS011;64109;52.148;4.466;2022-11-20T15:31:43;10.18;;;5.72;;
67981;SDS011;64109;52.148;4.466;2022-11-20T15:34:16;11.02;;;7.00;;
67981;SDS011;64109;52.148;4.466;2022-11-20T15:36:42;10.35;;;6.90;;
67981;SDS011;64109;52.148;4.466;2022-11-20T15:39:09;10.48;;;6.55;;
67981;SDS011;64109;52.148;4.466;2022-11-20T15:41:36;11.40;;;6.85;;
67981;SDS011;64109;52.148;4.466;2022-11-20T15:44:03;11.55;;;6.57;;
67981;SDS011;64109;52.148;4.466;2022-11-20T15:46:30;14.52;;;6.40;;
67981;SDS011;64109;52.148;4.466;2022-11-20T15:49:02;11.57;;;6.38;;
67981;SDS011;64109;52.148;4.466;2022-11-20T15:51:35;11.02;;;6.28;;
67981;SDS011;64109;52.148;4.466;2022-11-20T15:54:03;9.13;;;6.45;;
67981;SDS011;64109;52.148;4.466;2022-11-20T15:56:35;9.82;;;6.50;;
67981;SDS011;64109;52.148;4.466;2022-11-20T15:59:00;9.27;;;5.78;;
67981;SDS011;64109;52.148;4.466;2022-11-20T16:01:26;7.80;;;5.40;;
67981;SDS011;64109;52.148;4.466;2022-11-20T16:03:52;10.05;;;5.93;;
67981;SDS011;64109;52.148;4.466;2022-11-20T16:06:18;11.15;;;5.55;;
67981;SDS011;64109;52.148;4.466;2022-11-20T16:08:44;10.02;;;5.72;;
67981;SDS011;64109;52.148;4.466;2022-11-20T16:11:14;7.53;;;5.57;;
67981;SDS011;64109;52.148;4.466;2022-11-20T16:13:41;7.60;;;5.50;;
67981;SDS011;64109;52.148;4.466;2022-11-20T16:16:29;9.25;;;6.07;;
67981;SDS011;64109;52.148;4.466;2022-11-20T16:18:57;8.73;;;5.47;;
67981;SDS011;64109;52.148;4.466;2022-11-20T16:21:23;8.63;;;5.03;;
67981;SDS011;64109;52.148;4.466;2022-11-20T16:23:55;10.30;;;6.10;;
67981;SDS011;64109;52.148;4.466;2022-11-20T16:26:22;8.18;;;5.03;;
67981;SDS011;64109;52.148;4.466;2022-11-20T16:28:48;8.20;;;5.38;;
67981;SDS011;64109;52.148;4.466;2022-11-20T16:31:18;9.75;;;5.20;;